createdAt,value
2018-07-21T00:01:16.245Z,18.18
2018-07-21T00:03:45.380Z,18.19
2018-07-21T00:06:14.538Z,18.19
2018-07-21T00:08:43.701Z,18.21
2018-07-21T00:11:13.006Z,18.20
2018-07-21T00:13:42.401Z,18.18
2018-07-21T00:16:11.703Z,18.17
2018-07-21T00:18:40.842Z,18.18
2018-07-21T00:21:09.983Z,18.18
2018-07-21T00:23:39.146Z,18.15
2018-07-21T00:26:08.274Z,18.12
2018-07-21T00:28:37.398Z,18.10
2018-07-21T00:31:06.562Z,18.09
2018-07-21T00:33:36.288Z,18.09
2018-07-21T00:36:05.505Z,18.07
2018-07-21T00:38:34.656Z,18.06
2018-07-21T00:41:03.802Z,18.06
2018-07-21T00:43:32.967Z,18.04
2018-07-21T00:46:02.091Z,18.02
2018-07-21T00:48:31.259Z,18.00
2018-07-21T00:51:00.386Z,17.99
2018-07-21T00:53:33.506Z,17.97
2018-07-21T00:56:03.575Z,17.94
2018-07-21T00:58:32.872Z,17.94
2018-07-21T01:01:02.255Z,17.96
2018-07-21T01:03:31.410Z,17.96
2018-07-21T01:06:00.516Z,17.97
2018-07-21T01:08:29.773Z,17.97
2018-07-21T01:10:58.950Z,17.96
2018-07-21T01:13:28.417Z,17.95
2018-07-21T01:15:57.550Z,17.92
2018-07-21T01:18:26.718Z,17.90
2018-07-21T01:20:55.970Z,17.88
2018-07-21T01:23:25.147Z,17.84
2018-07-21T01:25:54.330Z,17.83
2018-07-21T01:28:23.498Z,17.79
2018-07-21T01:30:52.665Z,17.78
2018-07-21T01:33:21.762Z,17.78
2018-07-21T01:35:50.911Z,17.76
2018-07-21T01:38:20.094Z,17.73
2018-07-21T01:40:49.230Z,17.70
2018-07-21T01:43:18.326Z,17.70
2018-07-21T01:45:47.652Z,17.67
2018-07-21T01:48:16.741Z,17.64
2018-07-21T01:50:45.841Z,17.62
2018-07-21T01:53:15.063Z,17.60
2018-07-21T01:55:44.170Z,17.61
2018-07-21T01:58:13.330Z,17.62
2018-07-21T02:00:42.430Z,17.62
2018-07-21T02:03:11.631Z,17.60
2018-07-21T02:05:40.735Z,17.53
2018-07-21T02:08:09.989Z,17.44
2018-07-21T02:10:38.976Z,17.37
2018-07-21T02:13:08.069Z,17.27
2018-07-21T02:15:37.311Z,17.17
2018-07-21T02:18:06.504Z,17.10
2018-07-21T02:20:35.607Z,17.04
2018-07-21T02:23:04.802Z,17.00
2018-07-21T02:25:33.920Z,17.02
2018-07-21T02:28:03.027Z,17.08
2018-07-21T02:30:32.214Z,17.13
2018-07-21T02:33:01.352Z,17.16
2018-07-21T02:35:30.510Z,17.16
2018-07-21T02:37:59.675Z,17.15
2018-07-21T02:40:28.810Z,17.12
2018-07-21T02:42:57.955Z,17.09
2018-07-21T02:45:27.173Z,17.05
2018-07-21T02:47:56.336Z,17.01
2018-07-21T02:50:25.685Z,16.96
2018-07-21T02:52:54.837Z,16.91
2018-07-21T02:55:23.967Z,16.88
2018-07-21T02:57:53.089Z,16.84
2018-07-21T03:00:22.267Z,16.84
2018-07-21T03:02:51.413Z,16.86
2018-07-21T03:05:20.556Z,16.90
2018-07-21T03:07:49.699Z,16.94
2018-07-21T03:10:18.843Z,16.96
2018-07-21T03:12:47.983Z,16.98
2018-07-21T03:15:17.086Z,17.02
2018-07-21T03:17:46.231Z,17.09
2018-07-21T03:20:15.339Z,17.15
2018-07-21T03:22:44.478Z,17.20
2018-07-21T03:25:13.669Z,17.27
2018-07-21T03:27:42.760Z,17.33
2018-07-21T03:30:11.927Z,17.40
2018-07-21T03:32:41.042Z,17.43
2018-07-21T03:35:10.153Z,17.47
2018-07-21T03:37:39.807Z,17.54
2018-07-21T03:40:08.902Z,17.58
2018-07-21T03:42:38.006Z,17.62
2018-07-21T03:45:07.120Z,17.70
2018-07-21T03:47:36.264Z,17.75
2018-07-21T03:50:05.948Z,17.81
2018-07-21T03:52:35.037Z,17.87
2018-07-21T03:55:04.251Z,17.94
2018-07-21T03:57:33.413Z,18.03
2018-07-21T04:00:02.543Z,18.11
2018-07-21T04:02:31.690Z,18.22
2018-07-21T04:05:00.798Z,18.35
2018-07-21T04:07:30.327Z,18.47
2018-07-21T04:09:59.447Z,18.59
2018-07-21T04:12:28.593Z,18.73
2018-07-21T04:14:57.710Z,18.90
2018-07-21T04:17:27.699Z,19.12
2018-07-21T04:19:57.634Z,19.52
2018-07-21T04:22:27.202Z,19.92
2018-07-21T04:24:56.754Z,20.41
2018-07-21T04:27:25.838Z,20.83
2018-07-21T04:29:55.014Z,21.21
2018-07-21T04:32:24.131Z,21.53
2018-07-21T04:34:53.256Z,21.84
2018-07-21T04:37:22.415Z,22.30
2018-07-21T04:39:51.533Z,22.90
2018-07-21T04:42:20.705Z,23.51
2018-07-21T04:44:49.841Z,24.09
2018-07-21T04:47:19.015Z,24.76
2018-07-21T04:49:48.111Z,25.47
2018-07-21T04:52:17.206Z,26.13
2018-07-21T04:54:46.519Z,26.60
2018-07-21T04:57:15.633Z,27.02
2018-07-21T04:59:44.730Z,27.61
2018-07-21T05:02:13.876Z,28.14
2018-07-21T05:04:42.978Z,28.60
2018-07-21T05:07:12.090Z,28.94
2018-07-21T05:09:41.228Z,29.13
2018-07-21T05:12:10.338Z,29.43
2018-07-21T05:14:39.455Z,29.79
2018-07-21T05:17:08.567Z,30.25
2018-07-21T05:19:37.752Z,30.71
2018-07-21T05:22:07.214Z,31.08
2018-07-21T05:24:36.338Z,31.41
2018-07-21T05:27:18.936Z,31.70
2018-07-21T05:29:48.073Z,31.97
2018-07-21T05:32:17.210Z,32.31
2018-07-21T05:34:46.369Z,32.47
2018-07-21T05:37:15.554Z,32.36
2018-07-21T05:39:44.697Z,32.34
2018-07-21T05:42:13.847Z,32.55
2018-07-21T05:44:42.980Z,32.95
2018-07-21T05:47:13.150Z,33.36
2018-07-21T05:49:42.300Z,33.76
2018-07-21T05:52:11.405Z,33.96
2018-07-21T05:54:40.611Z,34.07
2018-07-21T05:57:10.021Z,34.20
2018-07-21T05:59:39.269Z,34.31
2018-07-21T06:02:08.676Z,34.55
2018-07-21T06:04:37.874Z,34.87
2018-07-21T06:07:06.967Z,35.10
2018-07-21T06:09:36.177Z,35.36
2018-07-21T06:12:05.294Z,35.70
2018-07-21T06:14:34.396Z,35.89
2018-07-21T06:17:03.613Z,36.00
2018-07-21T06:19:32.754Z,36.20
2018-07-21T06:22:01.890Z,36.41
2018-07-21T06:24:31.040Z,36.76
2018-07-21T06:27:00.218Z,37.23
2018-07-21T06:29:29.347Z,37.21
2018-07-21T06:31:58.509Z,36.91
2018-07-21T06:34:27.655Z,36.78
2018-07-21T06:36:56.929Z,36.62
2018-07-21T06:39:26.100Z,36.65
2018-07-21T06:41:55.042Z,36.48
2018-07-21T06:44:24.154Z,36.59
2018-07-21T06:46:53.297Z,36.67
2018-07-21T06:49:22.411Z,36.51
2018-07-21T06:51:51.542Z,36.44
2018-07-21T06:54:20.731Z,36.32
2018-07-21T06:56:49.866Z,36.14
2018-07-21T06:59:18.998Z,35.99
2018-07-21T07:01:48.779Z,36.03
2018-07-21T07:04:17.953Z,36.07
2018-07-21T07:06:47.084Z,36.31
2018-07-21T07:09:16.217Z,36.50
2018-07-21T07:11:45.377Z,36.83
2018-07-21T07:14:14.509Z,36.97
2018-07-21T07:16:43.658Z,36.99
2018-07-21T07:19:12.798Z,37.14
2018-07-21T07:21:42.036Z,36.77
2018-07-21T07:24:11.643Z,36.96
2018-07-21T07:26:40.779Z,37.20
2018-07-21T07:29:09.869Z,37.01
2018-07-21T07:31:39.345Z,37.15
2018-07-21T07:34:08.605Z,37.24
2018-07-21T07:36:37.743Z,37.62
2018-07-21T07:39:09.333Z,37.98
2018-07-21T07:41:38.947Z,38.25
2018-07-21T07:44:08.250Z,38.32
2018-07-21T07:46:37.481Z,38.24
2018-07-21T07:49:06.970Z,38.27
2018-07-21T07:51:36.170Z,38.46
2018-07-21T07:54:05.366Z,38.38
2018-07-21T07:56:34.536Z,38.41
2018-07-21T07:59:03.643Z,38.46
2018-07-21T08:01:32.817Z,38.26
2018-07-21T08:04:02.122Z,38.10
2018-07-21T08:06:31.296Z,38.28
2018-07-21T08:09:00.457Z,38.17
2018-07-21T08:11:29.610Z,38.30
2018-07-21T08:13:58.757Z,38.40
2018-07-21T08:16:27.885Z,38.37
2018-07-21T08:18:57.014Z,38.03
2018-07-21T08:21:26.188Z,38.01
2018-07-21T08:23:55.810Z,38.17
2018-07-21T08:26:24.982Z,38.60
2018-07-21T08:28:54.150Z,38.80
2018-07-21T08:31:23.301Z,39.05
2018-07-21T08:33:52.411Z,39.16
2018-07-21T08:36:21.677Z,39.02
2018-07-21T08:38:50.843Z,38.72
2018-07-21T08:41:20.167Z,38.94
2018-07-21T08:43:49.371Z,39.18
2018-07-21T08:46:18.727Z,39.04
2018-07-21T08:48:47.898Z,38.94
2018-07-21T08:51:17.092Z,39.33
2018-07-21T08:53:46.254Z,39.50
2018-07-21T08:56:15.359Z,39.40
2018-07-21T08:58:44.567Z,39.45
2018-07-21T09:01:13.713Z,39.23
2018-07-21T09:03:42.877Z,39.23
2018-07-21T09:06:12.078Z,39.05
2018-07-21T09:08:41.241Z,39.00
2018-07-21T09:11:10.402Z,39.13
2018-07-21T09:13:40.916Z,39.43
2018-07-21T09:16:10.086Z,39.88
2018-07-21T09:18:39.285Z,40.38
2018-07-21T09:21:08.499Z,40.82
2018-07-21T09:23:37.634Z,40.92
2018-07-21T09:26:06.818Z,40.90
2018-07-21T09:28:36.003Z,40.55
2018-07-21T09:31:05.194Z,40.65
2018-07-21T09:33:34.374Z,40.84
2018-07-21T09:36:03.566Z,40.56
2018-07-21T09:38:32.735Z,40.15
2018-07-21T09:41:01.899Z,40.09
2018-07-21T09:43:31.102Z,40.50
2018-07-21T09:46:00.303Z,40.74
2018-07-21T09:48:29.530Z,40.77
2018-07-21T09:50:58.650Z,40.94
2018-07-21T09:53:27.835Z,40.99
2018-07-21T09:55:57.047Z,41.38
2018-07-21T09:58:26.140Z,41.84
2018-07-21T10:01:00.575Z,41.58
2018-07-21T10:03:29.883Z,41.33
2018-07-21T10:05:59.104Z,40.83
2018-07-21T10:08:28.278Z,40.27
2018-07-21T10:10:57.444Z,39.99
2018-07-21T10:13:26.584Z,40.02
2018-07-21T10:15:55.928Z,39.74
2018-07-21T10:18:25.032Z,39.49
2018-07-21T10:20:54.195Z,39.22
2018-07-21T10:23:23.408Z,38.93
2018-07-21T10:25:57.902Z,38.54
2018-07-21T10:28:32.575Z,38.61
2018-07-21T10:31:01.753Z,39.08
2018-07-21T10:33:30.923Z,39.31
2018-07-21T10:36:00.167Z,39.13
2018-07-21T10:38:29.258Z,39.04
2018-07-21T10:40:58.381Z,38.85
2018-07-21T10:43:27.514Z,38.51
2018-07-21T10:45:56.649Z,38.32
2018-07-21T10:48:25.807Z,38.30
2018-07-21T10:50:55.123Z,38.43
2018-07-21T10:53:24.305Z,38.37
2018-07-21T10:55:53.419Z,37.86
2018-07-21T10:58:22.680Z,37.25
2018-07-21T11:00:51.792Z,36.59
2018-07-21T11:03:20.912Z,35.70
2018-07-21T11:05:50.099Z,35.22
2018-07-21T11:08:19.251Z,34.91
2018-07-21T11:10:48.363Z,34.75
2018-07-21T11:13:17.507Z,34.48
2018-07-21T11:15:46.669Z,34.11
2018-07-21T11:18:15.859Z,33.85
2018-07-21T11:20:45.019Z,33.60
2018-07-21T11:23:14.759Z,33.52
2018-07-21T11:25:43.906Z,33.36
2018-07-21T11:28:13.056Z,33.15
2018-07-21T11:30:42.159Z,32.87
2018-07-21T11:33:11.278Z,32.39
2018-07-21T11:35:40.558Z,32.02
2018-07-21T11:38:09.591Z,31.89
2018-07-21T11:40:38.706Z,31.76
2018-07-21T11:43:07.892Z,31.59
2018-07-21T11:45:37.031Z,31.45
2018-07-21T11:48:06.687Z,31.48
2018-07-21T11:50:35.819Z,31.70
2018-07-21T11:53:04.971Z,31.98
2018-07-21T11:55:34.102Z,32.13
2018-07-21T11:58:03.246Z,32.09
2018-07-21T12:00:32.356Z,31.90
2018-07-21T12:03:01.574Z,31.50
2018-07-21T12:05:30.694Z,31.12
2018-07-21T12:08:00.034Z,30.82
2018-07-21T12:10:29.168Z,30.61
2018-07-21T12:12:58.356Z,30.46
2018-07-21T12:15:27.464Z,30.39
2018-07-21T12:17:56.635Z,30.48
2018-07-21T12:20:25.853Z,30.37
2018-07-21T12:22:54.878Z,30.20
2018-07-21T12:25:24.038Z,30.22
2018-07-21T12:27:53.916Z,30.21
2018-07-21T12:30:23.035Z,30.17
2018-07-21T12:32:52.197Z,30.13
2018-07-21T12:35:21.290Z,30.15
2018-07-21T12:37:50.413Z,30.25
2018-07-21T12:40:19.541Z,30.24
2018-07-21T12:42:48.707Z,30.13
2018-07-21T12:45:17.830Z,30.06
2018-07-21T12:47:46.943Z,29.93
2018-07-21T12:50:16.103Z,29.80
2018-07-21T12:52:45.236Z,29.74
2018-07-21T12:55:14.356Z,29.64
2018-07-21T12:57:43.496Z,29.56
2018-07-21T13:00:12.589Z,29.42
2018-07-21T13:02:41.785Z,29.21
2018-07-21T13:05:10.890Z,29.01
2018-07-21T13:07:40.006Z,28.88
2018-07-21T13:10:09.151Z,28.82
2018-07-21T13:12:38.269Z,28.77
2018-07-21T13:15:07.750Z,28.75
2018-07-21T13:17:36.928Z,28.71
2018-07-21T13:20:06.470Z,28.66
2018-07-21T13:22:35.674Z,28.56
2018-07-21T13:25:05.004Z,28.54
2018-07-21T13:27:34.106Z,28.58
2018-07-21T13:30:03.234Z,28.72
2018-07-21T13:32:32.349Z,28.89
2018-07-21T13:35:02.495Z,29.07
2018-07-21T13:37:31.603Z,29.22
2018-07-21T13:40:00.785Z,29.33
2018-07-21T13:42:29.894Z,29.44
2018-07-21T13:44:59.050Z,29.38
2018-07-21T13:47:28.214Z,29.23
2018-07-21T13:49:57.876Z,29.18
2018-07-21T13:52:27.006Z,29.18
2018-07-21T13:54:56.175Z,29.10
2018-07-21T13:57:25.301Z,29.01
2018-07-21T13:59:54.418Z,28.94
2018-07-21T14:02:23.557Z,28.90
2018-07-21T14:04:52.686Z,28.93
2018-07-21T14:07:21.839Z,28.99
2018-07-21T14:09:51.028Z,29.09
2018-07-21T14:12:20.166Z,29.19
2018-07-21T14:14:49.300Z,29.30
2018-07-21T14:17:18.425Z,29.41
2018-07-21T14:19:47.535Z,29.48
2018-07-21T14:22:16.663Z,29.41
2018-07-21T14:24:46.012Z,29.29
2018-07-21T14:27:15.142Z,29.31
2018-07-21T14:29:44.384Z,29.29
2018-07-21T14:32:13.457Z,29.34
2018-07-21T14:34:42.622Z,29.44
2018-07-21T14:37:11.735Z,29.58
2018-07-21T14:39:40.845Z,29.67
2018-07-21T14:42:10.103Z,29.74
2018-07-21T14:44:39.215Z,29.81
2018-07-21T14:47:08.323Z,29.86
2018-07-21T14:49:37.444Z,29.90
2018-07-21T14:52:06.578Z,29.88
2018-07-21T14:54:35.760Z,29.83
2018-07-21T14:57:04.909Z,29.74
2018-07-21T14:59:34.052Z,29.67
2018-07-21T15:02:03.204Z,29.60
2018-07-21T15:04:32.369Z,29.58
2018-07-21T15:07:01.534Z,29.64
2018-07-21T15:09:30.740Z,29.73
2018-07-21T15:11:59.835Z,29.83
2018-07-21T15:14:28.777Z,29.92
2018-07-21T15:16:58.041Z,29.95
2018-07-21T15:19:27.157Z,29.98
2018-07-21T15:21:56.287Z,29.99
2018-07-21T15:24:25.394Z,29.97
2018-07-21T15:26:54.516Z,30.00
2018-07-21T15:29:23.552Z,29.91
2018-07-21T15:31:52.673Z,29.76
2018-07-21T15:34:21.779Z,29.67
2018-07-21T15:36:51.014Z,29.62
2018-07-21T15:39:20.123Z,29.60
2018-07-21T15:41:49.270Z,29.57
2018-07-21T15:44:18.385Z,29.54
2018-07-21T15:46:47.511Z,29.46
2018-07-21T15:49:16.638Z,29.43
2018-07-21T15:51:45.943Z,29.40
2018-07-21T15:54:15.069Z,29.31
2018-07-21T15:56:45.083Z,29.21
2018-07-21T15:59:14.263Z,29.12
2018-07-21T16:01:43.430Z,29.01
2018-07-21T16:04:12.649Z,28.94
2018-07-21T16:06:41.798Z,28.93
2018-07-21T16:09:11.930Z,28.81
2018-07-21T16:11:41.395Z,28.70
2018-07-21T16:14:10.518Z,28.60
2018-07-21T16:16:39.659Z,28.49
2018-07-21T16:19:08.766Z,28.46
2018-07-21T16:21:38.037Z,28.40
2018-07-21T16:24:07.160Z,28.35
2018-07-21T16:26:36.262Z,28.31
2018-07-21T16:29:05.693Z,28.28
2018-07-21T16:31:34.819Z,28.28
2018-07-21T16:34:03.972Z,28.23
2018-07-21T16:36:33.756Z,28.18
2018-07-21T16:39:02.853Z,28.11
2018-07-21T16:41:32.008Z,28.05
2018-07-21T16:44:01.127Z,28.01
2018-07-21T16:46:30.264Z,27.94
2018-07-21T16:48:59.402Z,27.87
2018-07-21T16:51:28.528Z,27.82
2018-07-21T16:53:57.719Z,27.78
2018-07-21T16:56:26.915Z,27.68
2018-07-21T16:58:56.074Z,27.61
2018-07-21T17:01:25.252Z,27.53
2018-07-21T17:03:54.458Z,27.43
2018-07-21T17:06:23.625Z,27.32
2018-07-21T17:08:52.766Z,27.19
2018-07-21T17:11:21.919Z,27.07
2018-07-21T17:13:51.078Z,26.94
2018-07-21T17:16:20.226Z,26.86
2018-07-21T17:18:49.374Z,26.78
2018-07-21T17:21:18.512Z,26.68
2018-07-21T17:23:47.717Z,26.59
2018-07-21T17:26:16.879Z,26.52
2018-07-21T17:28:46.023Z,26.46
2018-07-21T17:31:15.166Z,26.42
2018-07-21T17:33:44.281Z,26.36
2018-07-21T17:36:13.455Z,26.31
2018-07-21T17:38:42.615Z,26.28
2018-07-21T17:41:11.774Z,26.24
2018-07-21T17:43:40.949Z,26.19
2018-07-21T17:46:10.105Z,26.12
2018-07-21T17:48:39.277Z,26.07
2018-07-21T17:51:08.405Z,26.01
2018-07-21T17:53:37.556Z,25.96
2018-07-21T17:56:06.742Z,25.90
2018-07-21T17:58:35.971Z,25.85
2018-07-21T18:01:05.071Z,25.80
2018-07-21T18:03:34.285Z,25.78
2018-07-21T18:06:03.482Z,25.72
2018-07-21T18:08:32.601Z,25.67
2018-07-21T18:11:01.735Z,25.61
2018-07-21T18:13:30.871Z,25.53
2018-07-21T18:16:00.167Z,25.46
2018-07-21T18:18:29.382Z,25.39
2018-07-21T18:20:58.566Z,25.31
2018-07-21T18:23:28.390Z,25.25
2018-07-21T18:25:57.547Z,25.16
2018-07-21T18:28:26.728Z,25.11
2018-07-21T18:30:55.854Z,25.05
2018-07-21T18:33:25.122Z,24.98
2018-07-21T18:35:54.270Z,24.93
2018-07-21T18:38:23.414Z,24.88
2018-07-21T18:40:52.796Z,24.82
2018-07-21T18:43:21.956Z,24.76
2018-07-21T18:45:51.113Z,24.71
2018-07-21T18:48:21.187Z,24.67
2018-07-21T18:50:50.414Z,24.61
2018-07-21T18:53:19.567Z,24.56
2018-07-21T18:55:48.721Z,24.51
2018-07-21T18:58:17.906Z,24.46
2018-07-21T19:00:47.039Z,24.41
2018-07-21T19:03:16.788Z,24.33
2018-07-21T19:05:46.035Z,24.28
2018-07-21T19:08:20.463Z,24.22
2018-07-21T19:10:49.954Z,24.15
2018-07-21T19:13:19.153Z,24.08
2018-07-21T19:15:53.650Z,23.99
2018-07-21T19:18:22.658Z,23.92
2018-07-21T19:20:57.177Z,23.85
2018-07-21T19:23:26.395Z,23.80
2018-07-21T19:26:00.915Z,23.73
2018-07-21T19:28:30.218Z,23.65
2018-07-21T19:30:59.378Z,23.60
2018-07-21T19:33:28.522Z,23.54
2018-07-21T19:35:58.464Z,23.46
2018-07-21T19:38:27.619Z,23.42
2018-07-21T19:40:56.802Z,23.39
2018-07-21T19:43:26.098Z,23.35
2018-07-21T19:45:55.267Z,23.31
2018-07-21T19:48:24.378Z,23.28
2018-07-21T19:50:53.576Z,23.22
2018-07-21T19:53:22.719Z,23.18
2018-07-21T19:55:52.142Z,23.14
2018-07-21T19:58:21.623Z,23.12
2018-07-21T20:00:50.818Z,23.06
2018-07-21T20:03:19.950Z,23.02
2018-07-21T20:05:49.117Z,22.97
2018-07-21T20:08:18.270Z,22.94
2018-07-21T20:10:47.410Z,22.91
2018-07-21T20:13:16.530Z,22.88
2018-07-21T20:15:45.726Z,22.85
2018-07-21T20:18:14.994Z,22.83
2018-07-21T20:20:44.198Z,22.82
2018-07-21T20:23:13.359Z,22.81
2018-07-21T20:25:42.710Z,22.82
2018-07-21T20:28:11.959Z,22.83
2018-07-21T20:30:41.678Z,22.83
2018-07-21T20:33:10.791Z,22.81
2018-07-21T20:35:39.928Z,22.78
2018-07-21T20:38:09.107Z,22.74
2018-07-21T20:40:38.249Z,22.70
2018-07-21T20:43:07.978Z,22.68
2018-07-21T20:45:37.214Z,22.64
2018-07-21T20:48:06.420Z,22.61
2018-07-21T20:50:35.828Z,22.59
2018-07-21T20:53:05.035Z,22.56
2018-07-21T20:55:34.171Z,22.54
2018-07-21T20:58:03.715Z,22.52
2018-07-21T21:00:33.511Z,22.50
2018-07-21T21:03:02.756Z,22.50
2018-07-21T21:05:32.011Z,22.49
2018-07-21T21:08:01.211Z,22.50
2018-07-21T21:10:30.344Z,22.49
2018-07-21T21:12:59.499Z,22.48
2018-07-21T21:15:28.665Z,22.46
2018-07-21T21:17:57.854Z,22.43
2018-07-21T21:20:27.031Z,22.39
2018-07-21T21:22:56.865Z,22.31
2018-07-21T21:25:26.047Z,22.28
2018-07-21T21:27:55.397Z,22.21
2018-07-21T21:30:24.634Z,22.16
2018-07-21T21:32:53.832Z,22.11
2018-07-21T21:35:23.031Z,22.09
2018-07-21T21:37:52.187Z,22.08
2018-07-21T21:40:21.401Z,22.07
2018-07-21T21:42:50.772Z,22.07
2018-07-21T21:45:19.918Z,22.07
2018-07-21T21:47:49.076Z,22.06
2018-07-21T21:50:18.303Z,22.05
2018-07-21T21:52:47.513Z,22.04
2018-07-21T21:55:16.712Z,22.05
2018-07-21T21:57:45.848Z,22.04
2018-07-21T22:00:14.976Z,22.03
2018-07-21T22:02:44.134Z,22.03
2018-07-21T22:05:13.278Z,22.02
2018-07-21T22:07:42.480Z,22.02
2018-07-21T22:10:11.795Z,22.02
2018-07-21T22:12:40.989Z,22.02
2018-07-21T22:15:15.394Z,22.00
2018-07-21T22:17:45.452Z,21.99
2018-07-21T22:20:14.605Z,21.97
2018-07-21T22:22:44.129Z,21.96
2018-07-21T22:25:13.299Z,21.94
2018-07-21T22:27:42.466Z,21.92
2018-07-21T22:30:17.841Z,21.90
2018-07-21T22:32:46.985Z,21.89
2018-07-21T22:35:16.139Z,21.87
2018-07-21T22:37:45.364Z,21.86
2018-07-21T22:40:14.610Z,21.84
2018-07-21T22:42:45.335Z,21.81
2018-07-21T22:45:14.482Z,21.77
2018-07-21T22:47:45.372Z,21.76
2018-07-21T22:50:14.590Z,21.74
2018-07-21T22:52:43.748Z,21.72
2018-07-21T22:55:13.178Z,21.71
2018-07-21T22:57:42.511Z,21.69
2018-07-21T23:00:11.750Z,21.67
2018-07-21T23:02:41.892Z,21.65
2018-07-21T23:05:11.686Z,21.63
2018-07-21T23:07:40.924Z,21.60
2018-07-21T23:10:10.112Z,21.59
2018-07-21T23:12:39.264Z,21.57
2018-07-21T23:15:09.545Z,21.54
2018-07-21T23:17:38.681Z,21.54
2018-07-21T23:20:08.881Z,21.53
2018-07-21T23:22:38.305Z,21.50
2018-07-21T23:25:07.978Z,21.48
2018-07-21T23:27:37.160Z,21.45
2018-07-21T23:30:06.394Z,21.43
2018-07-21T23:32:35.615Z,21.43
2018-07-21T23:35:05.261Z,21.40
2018-07-21T23:37:34.924Z,21.39
2018-07-21T23:40:04.882Z,21.37
2018-07-21T23:42:34.987Z,21.36
2018-07-21T23:45:04.179Z,21.34
2018-07-21T23:47:33.319Z,21.31
2018-07-21T23:50:02.438Z,21.29
2018-07-21T23:52:31.578Z,21.25
2018-07-21T23:55:07.732Z,21.24
2018-07-21T23:57:37.305Z,21.21
